sensor_id;sensor_type;location;lat;lon;timestamp;P1;durP1;ratioP1;P2;durP2;ratioP2
38264;SDS011;24062;47.480;8.768;2023-12-14T00:00:46;1.30;;;0.50;;
38264;SDS011;24062;47.480;8.768;2023-12-14T00:03:13;1.67;;;0.67;;
38264;SDS011;24062;47.480;8.768;2023-12-14T00:05:41;1.60;;;0.50;;
38264;SDS011;24062;47.480;8.768;2023-12-14T00:08:08;1.37;;;0.50;;
38264;SDS011;24062;47.480;8.768;2023-12-14T00:10:35;1.63;;;0.73;;
38264;SDS011;24062;47.480;8.768;2023-12-14T00:13:02;1.20;;;0.40;;
38264;SDS011;24062;47.480;8.768;2023-12-14T00:15:29;1.30;;;0.50;;
38264;SDS011;24062;47.480;8.768;2023-12-14T00:17:56;1.90;;;0.70;;
38264;SDS011;24062;47.480;8.768;2023-12-14T00:20:23;1.40;;;0.70;;
38264;SDS011;24062;47.480;8.768;2023-12-14T00:22:51;3.40;;;0.50;;
38264;SDS011;24062;47.480;8.768;2023-12-14T00:25:18;1.70;;;0.70;;
38264;SDS011;24062;47.480;8.768;2023-12-14T00:27:45;2.47;;;0.50;;
38264;SDS011;24062;47.480;8.768;2023-12-14T00:30:12;1.40;;;0.60;;
38264;SDS011;24062;47.480;8.768;2023-12-14T00:32:39;1.30;;;0.50;;
38264;SDS011;24062;47.480;8.768;2023-12-14T00:35:06;1.60;;;0.50;;
38264;SDS011;24062;47.480;8.768;2023-12-14T00:37:33;1.70;;;0.80;;
38264;SDS011;24062;47.480;8.768;2023-12-14T00:40:02;1.60;;;0.60;;
38264;SDS011;24062;47.480;8.768;2023-12-14T00:42:29;1.20;;;0.50;;
38264;SDS011;24062;47.480;8.768;2023-12-14T00:44:55;1.50;;;0.60;;
38264;SDS011;24062;47.480;8.768;2023-12-14T00:47:22;1.30;;;0.50;;
38264;SDS011;24062;47.480;8.768;2023-12-14T00:49:49;1.60;;;0.57;;
38264;SDS011;24062;47.480;8.768;2023-12-14T00:52:16;1.70;;;0.60;;
38264;SDS011;24062;47.480;8.768;2023-12-14T00:54:43;2.10;;;0.73;;
38264;SDS011;24062;47.480;8.768;2023-12-14T00:57:11;2.13;;;0.50;;
38264;SDS011;24062;47.480;8.768;2023-12-14T00:59:38;1.17;;;0.47;;
38264;SDS011;24062;47.480;8.768;2023-12-14T01:02:05;1.40;;;0.50;;
38264;SDS011;24062;47.480;8.768;2023-12-14T01:04:32;1.30;;;0.50;;
38264;SDS011;24062;47.480;8.768;2023-12-14T01:06:59;1.30;;;0.50;;
38264;SDS011;24062;47.480;8.768;2023-12-14T01:09:26;1.70;;;0.60;;
38264;SDS011;24062;47.480;8.768;2023-12-14T01:11:53;1.20;;;0.40;;
38264;SDS011;24062;47.480;8.768;2023-12-14T01:14:21;1.40;;;0.50;;
38264;SDS011;24062;47.480;8.768;2023-12-14T01:16:48;1.30;;;0.50;;
38264;SDS011;24062;47.480;8.768;2023-12-14T01:19:15;1.20;;;0.47;;
38264;SDS011;24062;47.480;8.768;2023-12-14T01:21:42;1.70;;;0.60;;
38264;SDS011;24062;47.480;8.768;2023-12-14T01:24:09;1.20;;;0.40;;
38264;SDS011;24062;47.480;8.768;2023-12-14T01:26:36;1.40;;;0.60;;
38264;SDS011;24062;47.480;8.768;2023-12-14T01:29:03;1.50;;;0.40;;
38264;SDS011;24062;47.480;8.768;2023-12-14T01:31:31;1.57;;;0.60;;
38264;SDS011;24062;47.480;8.768;2023-12-14T01:33:58;1.70;;;0.50;;
38264;SDS011;24062;47.480;8.768;2023-12-14T01:36:26;1.40;;;0.53;;
38264;SDS011;24062;47.480;8.768;2023-12-14T01:38:53;1.20;;;0.50;;
38264;SDS011;24062;47.480;8.768;2023-12-14T01:41:19;1.60;;;0.50;;
38264;SDS011;24062;47.480;8.768;2023-12-14T01:43:46;1.50;;;0.40;;
38264;SDS011;24062;47.480;8.768;2023-12-14T01:46:13;1.50;;;0.50;;
38264;SDS011;24062;47.480;8.768;2023-12-14T01:48:42;1.60;;;0.40;;
38264;SDS011;24062;47.480;8.768;2023-12-14T01:51:09;1.50;;;0.50;;
38264;SDS011;24062;47.480;8.768;2023-12-14T01:53:36;1.50;;;0.50;;
38264;SDS011;24062;47.480;8.768;2023-12-14T01:56:03;1.20;;;0.40;;
38264;SDS011;24062;47.480;8.768;2023-12-14T01:58:31;1.47;;;0.50;;
38264;SDS011;24062;47.480;8.768;2023-12-14T02:00:58;1.70;;;0.40;;
38264;SDS011;24062;47.480;8.768;2023-12-14T02:03:30;1.20;;;0.40;;
38264;SDS011;24062;47.480;8.768;2023-12-14T02:05:58;1.20;;;0.40;;
38264;SDS011;24062;47.480;8.768;2023-12-14T02:08:25;1.17;;;0.47;;
38264;SDS011;24062;47.480;8.768;2023-12-14T02:10:54;1.10;;;0.40;;
38264;SDS011;24062;47.480;8.768;2023-12-14T02:13:21;1.30;;;0.50;;
38264;SDS011;24062;47.480;8.768;2023-12-14T02:15:48;1.20;;;0.40;;
38264;SDS011;24062;47.480;8.768;2023-12-14T02:18:14;1.77;;;0.50;;
38264;SDS011;24062;47.480;8.768;2023-12-14T02:20:41;1.30;;;0.40;;
38264;SDS011;24062;47.480;8.768;2023-12-14T02:23:10;2.00;;;0.60;;
38264;SDS011;24062;47.480;8.768;2023-12-14T02:25:36;1.70;;;0.50;;
38264;SDS011;24062;47.480;8.768;2023-12-14T02:28:03;1.40;;;0.50;;
38264;SDS011;24062;47.480;8.768;2023-12-14T02:30:30;1.20;;;0.40;;
38264;SDS011;24062;47.480;8.768;2023-12-14T02:32:57;1.20;;;0.40;;
38264;SDS011;24062;47.480;8.768;2023-12-14T02:35:23;1.40;;;0.40;;
38264;SDS011;24062;47.480;8.768;2023-12-14T02:37:50;1.10;;;0.40;;
38264;SDS011;24062;47.480;8.768;2023-12-14T02:40:18;1.43;;;0.53;;
38264;SDS011;24062;47.480;8.768;2023-12-14T02:42:45;1.23;;;0.40;;
38264;SDS011;24062;47.480;8.768;2023-12-14T02:45:12;1.47;;;0.50;;
38264;SDS011;24062;47.480;8.768;2023-12-14T02:47:39;1.20;;;0.50;;
38264;SDS011;24062;47.480;8.768;2023-12-14T02:50:06;1.50;;;0.40;;
38264;SDS011;24062;47.480;8.768;2023-12-14T02:52:33;1.13;;;0.50;;
38264;SDS011;24062;47.480;8.768;2023-12-14T02:55:00;1.50;;;0.50;;
38264;SDS011;24062;47.480;8.768;2023-12-14T02:57:28;1.20;;;0.50;;
38264;SDS011;24062;47.480;8.768;2023-12-14T02:59:55;1.40;;;0.47;;
38264;SDS011;24062;47.480;8.768;2023-12-14T03:02:22;1.50;;;0.50;;
38264;SDS011;24062;47.480;8.768;2023-12-14T03:04:49;1.40;;;0.40;;
38264;SDS011;24062;47.480;8.768;2023-12-14T03:07:16;1.20;;;0.40;;
38264;SDS011;24062;47.480;8.768;2023-12-14T03:09:44;1.40;;;0.40;;
38264;SDS011;24062;47.480;8.768;2023-12-14T03:12:11;1.27;;;0.40;;
38264;SDS011;24062;47.480;8.768;2023-12-14T03:14:39;1.50;;;0.40;;
38264;SDS011;24062;47.480;8.768;2023-12-14T03:17:06;1.30;;;0.50;;
38264;SDS011;24062;47.480;8.768;2023-12-14T03:19:37;2.20;;;0.43;;
38264;SDS011;24062;47.480;8.768;2023-12-14T03:22:05;1.23;;;0.43;;
38264;SDS011;24062;47.480;8.768;2023-12-14T03:24:32;1.20;;;0.40;;
38264;SDS011;24062;47.480;8.768;2023-12-14T03:26:59;1.20;;;0.40;;
38264;SDS011;24062;47.480;8.768;2023-12-14T03:29:26;1.10;;;0.40;;
38264;SDS011;24062;47.480;8.768;2023-12-14T03:31:54;1.10;;;0.40;;
38264;SDS011;24062;47.480;8.768;2023-12-14T03:34:21;1.10;;;0.40;;
38264;SDS011;24062;47.480;8.768;2023-12-14T03:36:48;1.10;;;0.30;;
38264;SDS011;24062;47.480;8.768;2023-12-14T03:39:16;1.20;;;0.40;;
38264;SDS011;24062;47.480;8.768;2023-12-14T03:41:43;1.47;;;0.40;;
38264;SDS011;24062;47.480;8.768;2023-12-14T03:44:10;1.10;;;0.40;;
38264;SDS011;24062;47.480;8.768;2023-12-14T03:46:37;1.93;;;0.40;;
38264;SDS011;24062;47.480;8.768;2023-12-14T03:49:05;1.10;;;0.40;;
38264;SDS011;24062;47.480;8.768;2023-12-14T03:51:32;1.10;;;0.30;;
38264;SDS011;24062;47.480;8.768;2023-12-14T03:53:59;1.30;;;0.50;;
38264;SDS011;24062;47.480;8.768;2023-12-14T03:56:26;1.20;;;0.40;;
38264;SDS011;24062;47.480;8.768;2023-12-14T03:58:53;1.20;;;0.40;;
38264;SDS011;24062;47.480;8.768;2023-12-14T04:01:20;1.30;;;0.40;;
38264;SDS011;24062;47.480;8.768;2023-12-14T04:03:47;1.20;;;0.40;;
38264;SDS011;24062;47.480;8.768;2023-12-14T04:06:15;1.57;;;0.50;;
38264;SDS011;24062;47.480;8.768;2023-12-14T04:08:42;1.10;;;0.40;;
38264;SDS011;24062;47.480;8.768;2023-12-14T04:11:09;1.20;;;0.30;;
38264;SDS011;24062;47.480;8.768;2023-12-14T04:13:36;1.20;;;0.40;;
38264;SDS011;24062;47.480;8.768;2023-12-14T04:16:05;1.10;;;0.40;;
38264;SDS011;24062;47.480;8.768;2023-12-14T04:18:32;1.30;;;0.40;;
38264;SDS011;24062;47.480;8.768;2023-12-14T04:20:59;1.60;;;0.50;;
38264;SDS011;24062;47.480;8.768;2023-12-14T04:23:28;1.20;;;0.40;;
38264;SDS011;24062;47.480;8.768;2023-12-14T04:25:54;1.10;;;0.40;;
38264;SDS011;24062;47.480;8.768;2023-12-14T04:28:21;1.20;;;0.40;;
38264;SDS011;24062;47.480;8.768;2023-12-14T04:30:48;1.23;;;0.47;;
38264;SDS011;24062;47.480;8.768;2023-12-14T04:33:15;1.87;;;0.50;;
38264;SDS011;24062;47.480;8.768;2023-12-14T04:35:42;1.10;;;0.47;;
38264;SDS011;24062;47.480;8.768;2023-12-14T04:38:09;1.10;;;0.40;;
38264;SDS011;24062;47.480;8.768;2023-12-14T04:40:37;1.10;;;0.40;;
38264;SDS011;24062;47.480;8.768;2023-12-14T04:43:04;1.30;;;0.50;;
38264;SDS011;24062;47.480;8.768;2023-12-14T04:45:31;1.10;;;0.40;;
38264;SDS011;24062;47.480;8.768;2023-12-14T04:47:57;1.10;;;0.40;;
38264;SDS011;24062;47.480;8.768;2023-12-14T04:50:24;1.20;;;0.40;;
38264;SDS011;24062;47.480;8.768;2023-12-14T04:52:51;2.27;;;0.50;;
38264;SDS011;24062;47.480;8.768;2023-12-14T04:55:18;1.10;;;0.40;;
38264;SDS011;24062;47.480;8.768;2023-12-14T04:57:46;1.80;;;0.40;;
38264;SDS011;24062;47.480;8.768;2023-12-14T05:00:14;1.40;;;0.40;;
38264;SDS011;24062;47.480;8.768;2023-12-14T05:02:42;1.20;;;0.40;;
38264;SDS011;24062;47.480;8.768;2023-12-14T05:05:13;1.30;;;0.50;;
38264;SDS011;24062;47.480;8.768;2023-12-14T05:07:40;1.30;;;0.40;;
38264;SDS011;24062;47.480;8.768;2023-12-14T05:10:07;1.10;;;0.40;;
38264;SDS011;24062;47.480;8.768;2023-12-14T05:12:35;1.10;;;0.40;;
38264;SDS011;24062;47.480;8.768;2023-12-14T05:15:04;1.40;;;0.40;;
38264;SDS011;24062;47.480;8.768;2023-12-14T05:17:31;1.10;;;0.40;;
38264;SDS011;24062;47.480;8.768;2023-12-14T05:19:59;1.20;;;0.40;;
38264;SDS011;24062;47.480;8.768;2023-12-14T05:22:27;1.50;;;0.50;;
38264;SDS011;24062;47.480;8.768;2023-12-14T05:24:54;1.10;;;0.30;;
38264;SDS011;24062;47.480;8.768;2023-12-14T05:27:20;1.10;;;0.40;;
38264;SDS011;24062;47.480;8.768;2023-12-14T05:29:47;1.27;;;0.40;;
38264;SDS011;24062;47.480;8.768;2023-12-14T05:32:16;1.30;;;0.40;;
38264;SDS011;24062;47.480;8.768;2023-12-14T05:34:42;1.20;;;0.40;;
38264;SDS011;24062;47.480;8.768;2023-12-14T05:37:09;1.20;;;0.40;;
38264;SDS011;24062;47.480;8.768;2023-12-14T05:39:36;1.30;;;0.40;;
38264;SDS011;24062;47.480;8.768;2023-12-14T05:42:03;1.20;;;0.47;;
38264;SDS011;24062;47.480;8.768;2023-12-14T05:44:30;1.40;;;0.40;;
38264;SDS011;24062;47.480;8.768;2023-12-14T05:46:57;1.10;;;0.33;;
38264;SDS011;24062;47.480;8.768;2023-12-14T05:49:25;1.20;;;0.50;;
38264;SDS011;24062;47.480;8.768;2023-12-14T05:51:52;1.17;;;0.30;;
38264;SDS011;24062;47.480;8.768;2023-12-14T05:54:19;1.20;;;0.40;;
38264;SDS011;24062;47.480;8.768;2023-12-14T05:56:46;2.70;;;0.40;;
38264;SDS011;24062;47.480;8.768;2023-12-14T05:59:13;1.10;;;0.30;;
38264;SDS011;24062;47.480;8.768;2023-12-14T06:01:40;1.10;;;0.40;;
38264;SDS011;24062;47.480;8.768;2023-12-14T06:04:08;2.40;;;0.40;;
38264;SDS011;24062;47.480;8.768;2023-12-14T06:06:36;1.30;;;0.60;;
38264;SDS011;24062;47.480;8.768;2023-12-14T06:09:04;1.20;;;0.40;;
38264;SDS011;24062;47.480;8.768;2023-12-14T06:11:32;1.10;;;0.30;;
38264;SDS011;24062;47.480;8.768;2023-12-14T06:13:59;1.10;;;0.40;;
38264;SDS011;24062;47.480;8.768;2023-12-14T06:16:26;7.10;;;0.50;;
38264;SDS011;24062;47.480;8.768;2023-12-14T06:18:52;1.43;;;0.43;;
38264;SDS011;24062;47.480;8.768;2023-12-14T06:21:19;2.03;;;0.50;;
38264;SDS011;24062;47.480;8.768;2023-12-14T06:23:47;1.23;;;0.40;;
38264;SDS011;24062;47.480;8.768;2023-12-14T06:26:14;1.20;;;0.40;;
38264;SDS011;24062;47.480;8.768;2023-12-14T06:28:41;1.33;;;0.40;;
38264;SDS011;24062;47.480;8.768;2023-12-14T06:31:11;1.10;;;0.40;;
38264;SDS011;24062;47.480;8.768;2023-12-14T06:33:39;1.30;;;0.43;;
38264;SDS011;24062;47.480;8.768;2023-12-14T06:36:07;1.27;;;0.40;;
38264;SDS011;24062;47.480;8.768;2023-12-14T06:38:34;1.20;;;0.40;;
38264;SDS011;24062;47.480;8.768;2023-12-14T06:41:05;1.50;;;0.60;;
38264;SDS011;24062;47.480;8.768;2023-12-14T06:43:33;1.23;;;0.37;;
38264;SDS011;24062;47.480;8.768;2023-12-14T06:46:00;1.10;;;0.30;;
38264;SDS011;24062;47.480;8.768;2023-12-14T06:48:27;1.10;;;0.40;;
38264;SDS011;24062;47.480;8.768;2023-12-14T06:50:53;1.20;;;0.40;;
38264;SDS011;24062;47.480;8.768;2023-12-14T06:53:20;1.30;;;0.40;;
38264;SDS011;24062;47.480;8.768;2023-12-14T06:55:47;1.87;;;0.40;;
38264;SDS011;24062;47.480;8.768;2023-12-14T06:58:16;1.30;;;0.40;;
38264;SDS011;24062;47.480;8.768;2023-12-14T07:00:43;1.80;;;0.40;;
38264;SDS011;24062;47.480;8.768;2023-12-14T07:03:10;1.53;;;0.50;;
38264;SDS011;24062;47.480;8.768;2023-12-14T07:05:37;2.80;;;0.40;;
38264;SDS011;24062;47.480;8.768;2023-12-14T07:08:05;1.60;;;0.50;;
38264;SDS011;24062;47.480;8.768;2023-12-14T07:10:32;1.83;;;0.50;;
38264;SDS011;24062;47.480;8.768;2023-12-14T07:12:59;1.20;;;0.40;;
38264;SDS011;24062;47.480;8.768;2023-12-14T07:15:27;3.10;;;0.40;;
38264;SDS011;24062;47.480;8.768;2023-12-14T07:17:54;1.63;;;0.40;;
38264;SDS011;24062;47.480;8.768;2023-12-14T07:20:21;5.77;;;0.87;;
38264;SDS011;24062;47.480;8.768;2023-12-14T07:22:47;3.83;;;0.50;;
38264;SDS011;24062;47.480;8.768;2023-12-14T07:25:14;1.20;;;0.47;;
38264;SDS011;24062;47.480;8.768;2023-12-14T07:27:41;1.30;;;0.43;;
38264;SDS011;24062;47.480;8.768;2023-12-14T07:30:09;1.40;;;0.47;;
38264;SDS011;24062;47.480;8.768;2023-12-14T07:32:38;3.87;;;0.50;;
38264;SDS011;24062;47.480;8.768;2023-12-14T07:35:05;1.73;;;0.60;;
38264;SDS011;24062;47.480;8.768;2023-12-14T07:37:33;2.70;;;0.67;;
38264;SDS011;24062;47.480;8.768;2023-12-14T07:40:00;2.53;;;0.60;;
38264;SDS011;24062;47.480;8.768;2023-12-14T07:42:28;1.50;;;0.50;;
38264;SDS011;24062;47.480;8.768;2023-12-14T07:44:55;1.90;;;0.50;;
38264;SDS011;24062;47.480;8.768;2023-12-14T07:47:22;1.83;;;0.50;;
38264;SDS011;24062;47.480;8.768;2023-12-14T07:49:50;1.20;;;0.40;;
38264;SDS011;24062;47.480;8.768;2023-12-14T07:52:17;3.93;;;0.50;;
38264;SDS011;24062;47.480;8.768;2023-12-14T07:54:44;1.43;;;0.40;;
38264;SDS011;24062;47.480;8.768;2023-12-14T07:57:10;1.10;;;0.40;;
38264;SDS011;24062;47.480;8.768;2023-12-14T07:59:37;2.10;;;0.50;;
38264;SDS011;24062;47.480;8.768;2023-12-14T08:02:04;1.63;;;0.50;;
38264;SDS011;24062;47.480;8.768;2023-12-14T08:04:31;1.10;;;0.40;;
38264;SDS011;24062;47.480;8.768;2023-12-14T08:07:00;1.43;;;0.60;;
38264;SDS011;24062;47.480;8.768;2023-12-14T08:09:26;1.40;;;0.60;;
38264;SDS011;24062;47.480;8.768;2023-12-14T08:11:53;2.17;;;0.50;;
38264;SDS011;24062;47.480;8.768;2023-12-14T08:14:20;2.13;;;0.50;;
38264;SDS011;24062;47.480;8.768;2023-12-14T08:16:47;2.90;;;0.50;;
38264;SDS011;24062;47.480;8.768;2023-12-14T08:19:17;2.23;;;0.40;;
38264;SDS011;24062;47.480;8.768;2023-12-14T08:21:47;1.13;;;0.40;;
38264;SDS011;24062;47.480;8.768;2023-12-14T08:24:15;3.97;;;0.50;;
38264;SDS011;24062;47.480;8.768;2023-12-14T08:26:42;2.23;;;0.60;;
38264;SDS011;24062;47.480;8.768;2023-12-14T08:29:09;1.10;;;0.40;;
38264;SDS011;24062;47.480;8.768;2023-12-14T08:31:36;1.17;;;0.40;;
38264;SDS011;24062;47.480;8.768;2023-12-14T08:34:02;1.10;;;0.40;;
38264;SDS011;24062;47.480;8.768;2023-12-14T08:36:29;1.70;;;0.43;;
38264;SDS011;24062;47.480;8.768;2023-12-14T08:38:56;1.50;;;0.40;;
38264;SDS011;24062;47.480;8.768;2023-12-14T08:41:25;1.50;;;0.40;;
38264;SDS011;24062;47.480;8.768;2023-12-14T08:43:51;1.30;;;0.50;;
38264;SDS011;24062;47.480;8.768;2023-12-14T08:46:20;2.17;;;0.50;;
38264;SDS011;24062;47.480;8.768;2023-12-14T08:48:48;1.70;;;0.87;;
38264;SDS011;24062;47.480;8.768;2023-12-14T08:51:15;1.57;;;0.40;;
38264;SDS011;24062;47.480;8.768;2023-12-14T08:53:42;3.10;;;0.80;;
38264;SDS011;24062;47.480;8.768;2023-12-14T08:56:09;1.20;;;0.40;;
38264;SDS011;24062;47.480;8.768;2023-12-14T08:58:37;2.70;;;0.50;;
38264;SDS011;24062;47.480;8.768;2023-12-14T09:01:04;1.10;;;0.40;;
38264;SDS011;24062;47.480;8.768;2023-12-14T09:03:31;1.33;;;0.60;;
38264;SDS011;24062;47.480;8.768;2023-12-14T09:05:58;1.70;;;0.40;;
38264;SDS011;24062;47.480;8.768;2023-12-14T09:08:27;1.30;;;0.40;;
38264;SDS011;24062;47.480;8.768;2023-12-14T09:10:54;1.50;;;0.63;;
38264;SDS011;24062;47.480;8.768;2023-12-14T09:13:21;1.30;;;0.40;;
38264;SDS011;24062;47.480;8.768;2023-12-14T09:15:49;2.30;;;0.60;;
38264;SDS011;24062;47.480;8.768;2023-12-14T09:18:18;2.53;;;0.80;;
38264;SDS011;24062;47.480;8.768;2023-12-14T09:20:47;2.07;;;0.50;;
38264;SDS011;24062;47.480;8.768;2023-12-14T09:23:14;1.87;;;0.57;;
38264;SDS011;24062;47.480;8.768;2023-12-14T09:25:41;1.30;;;0.50;;
38264;SDS011;24062;47.480;8.768;2023-12-14T09:28:08;1.83;;;0.50;;
38264;SDS011;24062;47.480;8.768;2023-12-14T09:30:35;1.20;;;0.40;;
38264;SDS011;24062;47.480;8.768;2023-12-14T09:33:03;3.93;;;0.70;;
38264;SDS011;24062;47.480;8.768;2023-12-14T09:35:31;1.77;;;0.50;;
38264;SDS011;24062;47.480;8.768;2023-12-14T09:37:58;1.50;;;0.60;;
38264;SDS011;24062;47.480;8.768;2023-12-14T09:40:24;1.30;;;0.40;;
38264;SDS011;24062;47.480;8.768;2023-12-14T09:42:51;1.90;;;0.50;;
38264;SDS011;24062;47.480;8.768;2023-12-14T09:45:19;1.80;;;0.43;;
38264;SDS011;24062;47.480;8.768;2023-12-14T09:47:50;1.27;;;0.50;;
38264;SDS011;24062;47.480;8.768;2023-12-14T09:50:19;2.03;;;0.57;;
38264;SDS011;24062;47.480;8.768;2023-12-14T09:52:46;1.20;;;0.40;;
38264;SDS011;24062;47.480;8.768;2023-12-14T09:55:14;2.83;;;0.40;;
38264;SDS011;24062;47.480;8.768;2023-12-14T09:57:41;1.30;;;0.50;;
38264;SDS011;24062;47.480;8.768;2023-12-14T10:00:08;1.40;;;0.50;;
38264;SDS011;24062;47.480;8.768;2023-12-14T10:02:39;2.13;;;0.50;;
38264;SDS011;24062;47.480;8.768;2023-12-14T10:05:07;1.33;;;0.40;;
38264;SDS011;24062;47.480;8.768;2023-12-14T10:07:39;1.47;;;0.50;;
38264;SDS011;24062;47.480;8.768;2023-12-14T10:10:09;1.40;;;0.50;;
38264;SDS011;24062;47.480;8.768;2023-12-14T10:12:43;1.27;;;0.40;;
38264;SDS011;24062;47.480;8.768;2023-12-14T10:15:17;1.13;;;0.40;;
38264;SDS011;24062;47.480;8.768;2023-12-14T10:17:44;1.40;;;0.40;;
38264;SDS011;24062;47.480;8.768;2023-12-14T10:20:18;2.37;;;0.50;;
38264;SDS011;24062;47.480;8.768;2023-12-14T10:22:48;1.10;;;0.40;;
38264;SDS011;24062;47.480;8.768;2023-12-14T10:25:17;1.80;;;0.70;;
38264;SDS011;24062;47.480;8.768;2023-12-14T10:27:45;1.30;;;0.40;;
38264;SDS011;24062;47.480;8.768;2023-12-14T10:30:13;1.53;;;0.47;;
38264;SDS011;24062;47.480;8.768;2023-12-14T10:32:40;1.60;;;0.40;;
38264;SDS011;24062;47.480;8.768;2023-12-14T10:35:07;1.20;;;0.40;;
38264;SDS011;24062;47.480;8.768;2023-12-14T10:37:36;1.43;;;0.50;;
38264;SDS011;24062;47.480;8.768;2023-12-14T10:40:06;1.40;;;0.50;;
38264;SDS011;24062;47.480;8.768;2023-12-14T10:42:35;1.20;;;0.47;;
38264;SDS011;24062;47.480;8.768;2023-12-14T10:45:03;1.20;;;0.50;;
38264;SDS011;24062;47.480;8.768;2023-12-14T10:47:31;1.57;;;0.50;;
38264;SDS011;24062;47.480;8.768;2023-12-14T10:49:59;2.37;;;0.40;;
38264;SDS011;24062;47.480;8.768;2023-12-14T10:52:27;1.30;;;0.47;;
38264;SDS011;24062;47.480;8.768;2023-12-14T10:54:56;1.10;;;0.40;;
38264;SDS011;24062;47.480;8.768;2023-12-14T10:57:29;1.50;;;0.70;;
38264;SDS011;24062;47.480;8.768;2023-12-14T10:59:57;1.13;;;0.50;;
38264;SDS011;24062;47.480;8.768;2023-12-14T11:02:25;1.10;;;0.40;;
38264;SDS011;24062;47.480;8.768;2023-12-14T11:04:55;1.57;;;0.70;;
38264;SDS011;24062;47.480;8.768;2023-12-14T11:10:19;1.93;;;0.50;;
38264;SDS011;24062;47.480;8.768;2023-12-14T11:12:55;1.93;;;0.40;;
38264;SDS011;24062;47.480;8.768;2023-12-14T11:15:25;1.20;;;0.40;;
38264;SDS011;24062;47.480;8.768;2023-12-14T11:20:48;1.70;;;0.43;;
38264;SDS011;24062;47.480;8.768;2023-12-14T11:23:15;1.20;;;0.40;;
38264;SDS011;24062;47.480;8.768;2023-12-14T11:25:44;1.20;;;0.43;;
38264;SDS011;24062;47.480;8.768;2023-12-14T11:28:16;4.03;;;0.53;;
38264;SDS011;24062;47.480;8.768;2023-12-14T11:30:43;1.30;;;0.43;;
38264;SDS011;24062;47.480;8.768;2023-12-14T11:33:11;1.30;;;0.40;;
38264;SDS011;24062;47.480;8.768;2023-12-14T11:35:38;2.17;;;0.40;;
38264;SDS011;24062;47.480;8.768;2023-12-14T11:38:05;1.40;;;0.50;;
38264;SDS011;24062;47.480;8.768;2023-12-14T11:40:37;2.00;;;0.60;;
38264;SDS011;24062;47.480;8.768;2023-12-14T11:43:04;1.50;;;0.67;;
38264;SDS011;24062;47.480;8.768;2023-12-14T11:45:34;1.20;;;0.40;;
38264;SDS011;24062;47.480;8.768;2023-12-14T11:48:02;1.50;;;0.50;;
38264;SDS011;24062;47.480;8.768;2023-12-14T11:50:31;2.10;;;0.47;;
38264;SDS011;24062;47.480;8.768;2023-12-14T11:52:58;1.10;;;0.40;;
38264;SDS011;24062;47.480;8.768;2023-12-14T11:55:26;1.10;;;0.40;;
38264;SDS011;24062;47.480;8.768;2023-12-14T11:57:53;1.10;;;0.50;;
38264;SDS011;24062;47.480;8.768;2023-12-14T12:00:23;1.47;;;0.60;;
38264;SDS011;24062;47.480;8.768;2023-12-14T12:02:52;1.20;;;0.40;;
38264;SDS011;24062;47.480;8.768;2023-12-14T12:05:34;1.40;;;0.40;;
38264;SDS011;24062;47.480;8.768;2023-12-14T12:08:02;1.20;;;0.50;;
38264;SDS011;24062;47.480;8.768;2023-12-14T12:10:29;1.20;;;0.50;;
38264;SDS011;24062;47.480;8.768;2023-12-14T12:12:58;1.30;;;0.40;;
38264;SDS011;24062;47.480;8.768;2023-12-14T12:15:26;1.53;;;0.40;;
38264;SDS011;24062;47.480;8.768;2023-12-14T12:17:54;1.33;;;0.50;;
38264;SDS011;24062;47.480;8.768;2023-12-14T12:20:21;1.40;;;0.63;;
38264;SDS011;24062;47.480;8.768;2023-12-14T12:22:48;1.50;;;0.60;;
38264;SDS011;24062;47.480;8.768;2023-12-14T12:25:15;1.20;;;0.50;;
38264;SDS011;24062;47.480;8.768;2023-12-14T12:27:42;1.20;;;0.50;;
38264;SDS011;24062;47.480;8.768;2023-12-14T12:30:09;1.47;;;0.50;;
38264;SDS011;24062;47.480;8.768;2023-12-14T12:32:37;2.67;;;0.60;;
38264;SDS011;24062;47.480;8.768;2023-12-14T12:35:06;1.50;;;0.50;;
38264;SDS011;24062;47.480;8.768;2023-12-14T12:37:33;1.13;;;0.40;;
38264;SDS011;24062;47.480;8.768;2023-12-14T12:40:00;1.97;;;0.50;;
38264;SDS011;24062;47.480;8.768;2023-12-14T12:42:27;1.20;;;0.40;;
38264;SDS011;24062;47.480;8.768;2023-12-14T12:44:55;1.30;;;0.40;;
38264;SDS011;24062;47.480;8.768;2023-12-14T12:47:23;1.40;;;0.60;;
38264;SDS011;24062;47.480;8.768;2023-12-14T12:49:49;1.60;;;0.67;;
38264;SDS011;24062;47.480;8.768;2023-12-14T12:52:18;2.17;;;0.70;;
38264;SDS011;24062;47.480;8.768;2023-12-14T12:54:44;1.27;;;0.50;;
38264;SDS011;24062;47.480;8.768;2023-12-14T12:57:11;1.37;;;0.40;;
38264;SDS011;24062;47.480;8.768;2023-12-14T12:59:38;1.50;;;0.50;;
38264;SDS011;24062;47.480;8.768;2023-12-14T13:02:05;1.30;;;0.40;;
38264;SDS011;24062;47.480;8.768;2023-12-14T13:04:32;1.30;;;0.50;;
38264;SDS011;24062;47.480;8.768;2023-12-14T13:06:59;1.37;;;0.50;;
38264;SDS011;24062;47.480;8.768;2023-12-14T13:09:30;1.30;;;0.40;;
38264;SDS011;24062;47.480;8.768;2023-12-14T13:11:57;1.33;;;0.47;;
38264;SDS011;24062;47.480;8.768;2023-12-14T13:14:24;1.20;;;0.40;;
38264;SDS011;24062;47.480;8.768;2023-12-14T13:16:51;8.90;;;1.87;;
38264;SDS011;24062;47.480;8.768;2023-12-14T13:19:18;9.43;;;2.87;;
38264;SDS011;24062;47.480;8.768;2023-12-14T13:21:45;11.40;;;2.80;;
38264;SDS011;24062;47.480;8.768;2023-12-14T13:24:11;13.37;;;2.93;;
38264;SDS011;24062;47.480;8.768;2023-12-14T13:26:40;16.60;;;3.20;;
38264;SDS011;24062;47.480;8.768;2023-12-14T13:29:07;5.30;;;2.37;;
38264;SDS011;24062;47.480;8.768;2023-12-14T13:31:33;4.80;;;2.80;;
38264;SDS011;24062;47.480;8.768;2023-12-14T13:34:00;9.07;;;2.40;;
38264;SDS011;24062;47.480;8.768;2023-12-14T13:36:28;10.20;;;2.70;;
38264;SDS011;24062;47.480;8.768;2023-12-14T13:38:55;6.83;;;2.07;;
38264;SDS011;24062;47.480;8.768;2023-12-14T13:41:22;4.20;;;1.67;;
38264;SDS011;24062;47.480;8.768;2023-12-14T13:43:51;11.23;;;1.67;;
38264;SDS011;24062;47.480;8.768;2023-12-14T13:46:17;4.90;;;1.70;;
38264;SDS011;24062;47.480;8.768;2023-12-14T13:48:44;3.57;;;1.70;;
38264;SDS011;24062;47.480;8.768;2023-12-14T13:51:11;2.70;;;1.63;;
38264;SDS011;24062;47.480;8.768;2023-12-14T13:53:38;4.60;;;1.93;;
38264;SDS011;24062;47.480;8.768;2023-12-14T13:56:05;3.00;;;1.47;;
38264;SDS011;24062;47.480;8.768;2023-12-14T13:58:32;3.57;;;1.07;;
38264;SDS011;24062;47.480;8.768;2023-12-14T14:01:03;2.40;;;1.60;;
38264;SDS011;24062;47.480;8.768;2023-12-14T14:03:32;3.70;;;1.47;;
38264;SDS011;24062;47.480;8.768;2023-12-14T14:05:59;2.53;;;1.40;;
38264;SDS011;24062;47.480;8.768;2023-12-14T14:08:25;3.23;;;1.47;;
38264;SDS011;24062;47.480;8.768;2023-12-14T14:10:52;2.90;;;1.17;;
38264;SDS011;24062;47.480;8.768;2023-12-14T14:13:19;3.30;;;1.10;;
38264;SDS011;24062;47.480;8.768;2023-12-14T14:15:48;1.70;;;0.90;;
38264;SDS011;24062;47.480;8.768;2023-12-14T14:18:16;1.80;;;1.07;;
38264;SDS011;24062;47.480;8.768;2023-12-14T14:20:43;2.47;;;1.37;;
38264;SDS011;24062;47.480;8.768;2023-12-14T14:23:10;2.23;;;0.70;;
38264;SDS011;24062;47.480;8.768;2023-12-14T14:25:37;2.30;;;0.87;;
38264;SDS011;24062;47.480;8.768;2023-12-14T14:28:04;1.60;;;0.80;;
38264;SDS011;24062;47.480;8.768;2023-12-14T14:30:31;1.53;;;0.60;;
38264;SDS011;24062;47.480;8.768;2023-12-14T14:32:58;2.43;;;1.00;;
38264;SDS011;24062;47.480;8.768;2023-12-14T14:35:26;2.00;;;1.10;;
38264;SDS011;24062;47.480;8.768;2023-12-14T14:37:53;1.90;;;1.00;;
38264;SDS011;24062;47.480;8.768;2023-12-14T14:40:20;2.07;;;0.90;;
38264;SDS011;24062;47.480;8.768;2023-12-14T14:42:47;1.90;;;0.70;;
38264;SDS011;24062;47.480;8.768;2023-12-14T14:45:15;3.10;;;0.70;;
38264;SDS011;24062;47.480;8.768;2023-12-14T14:47:42;1.60;;;0.67;;
38264;SDS011;24062;47.480;8.768;2023-12-14T14:50:09;2.23;;;0.90;;
38264;SDS011;24062;47.480;8.768;2023-12-14T14:52:37;2.07;;;0.90;;
38264;SDS011;24062;47.480;8.768;2023-12-14T14:55:04;1.83;;;0.77;;